createdAt,value
2022-10-11T00:01:43.697Z,12.31
2022-10-11T00:04:10.408Z,12.30
2022-10-11T00:06:43.319Z,12.30
2022-10-11T00:09:16.134Z,12.29
2022-10-11T00:11:42.866Z,12.27
2022-10-11T00:14:09.659Z,12.24
2022-10-11T00:16:38.681Z,12.20
2022-10-11T00:19:05.299Z,12.17
2022-10-11T00:21:31.947Z,12.13
2022-10-11T00:23:58.500Z,12.11
2022-10-11T00:26:25.075Z,12.09
2022-10-11T00:28:52.765Z,12.05
2022-10-11T00:31:19.627Z,12.00
2022-10-11T00:33:46.514Z,11.95
2022-10-11T00:36:14.883Z,11.88
2022-10-11T00:38:41.462Z,11.84
2022-10-11T00:41:08.158Z,11.80
2022-10-11T00:43:35.303Z,11.78
2022-10-11T00:46:24.527Z,11.76
2022-10-11T00:48:56.958Z,11.70
2022-10-11T00:51:47.111Z,11.65
2022-10-11T00:54:17.766Z,11.59
2022-10-11T00:56:49.443Z,11.54
2022-10-11T00:59:26.418Z,11.50
2022-10-11T01:01:53.483Z,11.50
2022-10-11T01:04:20.851Z,11.50
2022-10-11T01:06:48.898Z,11.48
2022-10-11T01:09:15.967Z,11.49
2022-10-11T01:11:44.098Z,11.49
2022-10-11T01:14:29.094Z,11.48
2022-10-11T01:17:32.929Z,11.45
2022-10-11T01:20:26.492Z,11.40
2022-10-11T01:23:11.945Z,11.34
2022-10-11T01:25:59.386Z,11.25
2022-10-11T01:28:48.021Z,11.16
2022-10-11T01:31:22.600Z,11.07
2022-10-11T01:33:59.171Z,11.00
2022-10-11T01:36:41.605Z,10.92
2022-10-11T01:39:31.921Z,10.83
2022-10-11T01:42:01.919Z,10.75
2022-10-11T01:44:29.111Z,10.67
2022-10-11T01:46:56.318Z,10.62
2022-10-11T01:49:22.974Z,10.61
2022-10-11T01:51:53.691Z,10.59
2022-10-11T01:55:08.640Z,10.58
2022-10-11T01:57:41.860Z,10.58
2022-10-11T02:00:17.674Z,10.59
2022-10-11T02:02:50.228Z,10.60
2022-10-11T02:05:43.247Z,10.60
2022-10-11T02:08:25.701Z,10.59
2022-10-11T02:11:06.870Z,10.59
2022-10-11T02:13:41.389Z,10.58
2022-10-11T02:16:13.051Z,10.57
2022-10-11T02:18:46.739Z,10.54
2022-10-11T02:21:17.015Z,10.56
2022-10-11T02:23:48.431Z,10.55
2022-10-11T02:26:16.515Z,10.54
2022-10-11T02:28:46.270Z,10.54
2022-10-11T02:31:14.647Z,10.52
2022-10-11T02:33:50.604Z,10.50
2022-10-11T02:36:26.696Z,10.47
2022-10-11T02:38:59.179Z,10.44
2022-10-11T02:41:31.277Z,10.42
2022-10-11T02:44:05.240Z,10.38
2022-10-11T02:46:32.649Z,10.36
2022-10-11T02:49:00.667Z,10.36
2022-10-11T02:51:30.406Z,10.39
2022-10-11T02:53:57.322Z,10.40
2022-10-11T02:56:23.926Z,10.43
2022-10-11T02:58:50.540Z,10.44
2022-10-11T03:01:17.219Z,10.45
2022-10-11T03:03:43.866Z,10.45
2022-10-11T03:06:10.546Z,10.44
2022-10-11T03:08:37.206Z,10.41
2022-10-11T03:11:03.923Z,10.38
2022-10-11T03:13:30.480Z,10.35
2022-10-11T03:16:03.186Z,10.33
2022-10-11T03:18:31.078Z,10.32
2022-10-11T03:20:57.769Z,10.29
2022-10-11T03:23:24.380Z,10.27
2022-10-11T03:25:52.174Z,10.27
2022-10-11T03:28:20.020Z,10.28
2022-10-11T03:30:48.540Z,10.27
2022-10-11T03:33:15.601Z,10.27
2022-10-11T03:35:47.633Z,10.27
2022-10-11T03:38:19.970Z,10.27
2022-10-11T03:40:46.799Z,10.25
2022-10-11T03:43:13.882Z,10.21
2022-10-11T03:45:43.845Z,10.18
2022-10-11T03:48:11.348Z,10.17
2022-10-11T03:50:38.320Z,10.15
2022-10-11T03:53:06.822Z,10.13
2022-10-11T03:55:33.552Z,10.13
2022-10-11T03:58:00.308Z,10.15
2022-10-11T04:00:26.988Z,10.16
2022-10-11T04:02:53.726Z,10.17
2022-10-11T04:05:20.372Z,10.19
2022-10-11T04:07:47.034Z,10.23
2022-10-11T04:10:14.397Z,10.25
2022-10-11T04:12:41.128Z,10.29
2022-10-11T04:15:08.317Z,10.32
2022-10-11T04:17:34.957Z,10.35
2022-10-11T04:20:01.731Z,10.39
2022-10-11T04:22:28.297Z,10.41
2022-10-11T04:24:54.904Z,10.47
2022-10-11T04:27:21.992Z,10.50
2022-10-11T04:29:48.570Z,10.50
2022-10-11T04:32:15.238Z,10.51
2022-10-11T04:34:41.960Z,10.53
2022-10-11T04:37:08.552Z,10.54
2022-10-11T04:39:35.157Z,10.55
2022-10-11T04:42:01.748Z,10.53
2022-10-11T04:44:28.554Z,10.51
2022-10-11T04:46:55.184Z,10.49
2022-10-11T04:49:21.902Z,10.51
2022-10-11T04:51:48.481Z,10.53
2022-10-11T04:54:15.250Z,10.54
2022-10-11T04:56:41.873Z,10.56
2022-10-11T04:59:08.487Z,10.57
2022-10-11T05:01:35.412Z,10.57
2022-10-11T05:04:02.116Z,10.55
2022-10-11T05:06:28.728Z,10.53
2022-10-11T05:08:55.401Z,10.50
2022-10-11T05:11:22.416Z,10.49
2022-10-11T05:13:48.971Z,10.47
2022-10-11T05:16:16.726Z,10.48
2022-10-11T05:18:44.025Z,10.53
2022-10-11T05:21:19.920Z,10.57
2022-10-11T05:23:47.959Z,10.61
2022-10-11T05:26:15.583Z,10.64
2022-10-11T05:28:42.615Z,10.67
2022-10-11T05:31:09.655Z,10.58
2022-10-11T05:33:36.537Z,10.49
2022-10-11T05:36:04.125Z,10.41
2022-10-11T05:38:31.062Z,10.36
2022-10-11T05:41:05.387Z,10.37
2022-10-11T05:43:32.414Z,10.41
2022-10-11T05:45:59.726Z,10.45
2022-10-11T05:48:26.988Z,10.50
2022-10-11T05:50:58.559Z,10.56
2022-10-11T05:53:25.150Z,10.53
2022-10-11T05:55:51.827Z,10.53
2022-10-11T05:58:18.795Z,10.53
2022-10-11T06:00:45.407Z,10.52
2022-10-11T06:03:13.557Z,10.58
2022-10-11T06:05:40.387Z,10.71
2022-10-11T06:08:08.773Z,10.81
2022-10-11T06:10:37.349Z,10.89
2022-10-11T06:13:04.598Z,10.98
2022-10-11T06:15:31.285Z,11.09
2022-10-11T06:17:59.325Z,11.20
2022-10-11T06:20:27.065Z,11.31
2022-10-11T06:22:53.749Z,11.37
2022-10-11T06:25:20.355Z,11.41
2022-10-11T06:27:46.949Z,11.41
2022-10-11T06:30:14.197Z,11.44
2022-10-11T06:32:40.786Z,11.51
2022-10-11T06:35:07.862Z,11.55
2022-10-11T06:37:34.444Z,11.58
2022-10-11T06:40:01.182Z,11.58
2022-10-11T06:42:27.780Z,11.60
2022-10-11T06:44:54.792Z,11.62
2022-10-11T06:47:21.336Z,11.59
2022-10-11T06:49:47.971Z,11.53
2022-10-11T06:52:14.565Z,11.47
2022-10-11T06:54:44.742Z,11.49
2022-10-11T06:57:12.096Z,11.57
2022-10-11T06:59:38.729Z,11.57
2022-10-11T07:02:05.360Z,11.59
2022-10-11T07:04:34.014Z,11.63
2022-10-11T07:07:01.216Z,11.66
2022-10-11T07:09:27.804Z,11.71
2022-10-11T07:11:54.524Z,11.76
2022-10-11T07:14:21.135Z,11.83
2022-10-11T07:16:47.782Z,11.87
2022-10-11T07:19:14.566Z,11.99
2022-10-11T07:21:41.103Z,12.10
2022-10-11T07:24:07.829Z,12.17
2022-10-11T07:26:38.809Z,12.20
2022-10-11T07:29:08.369Z,12.28
2022-10-11T07:31:40.187Z,12.43
2022-10-11T07:34:07.135Z,12.55
2022-10-11T07:36:33.978Z,12.69
2022-10-11T07:39:00.679Z,12.81
2022-10-11T07:41:27.387Z,12.99
2022-10-11T07:43:55.116Z,13.24
2022-10-11T07:46:22.017Z,13.56
2022-10-11T07:48:50.351Z,13.86
2022-10-11T07:51:22.202Z,14.14
2022-10-11T07:53:51.159Z,14.43
2022-10-11T07:56:23.324Z,14.67
2022-10-11T07:58:54.564Z,14.89
2022-10-11T08:01:21.789Z,15.06
2022-10-11T08:03:49.704Z,15.19
2022-10-11T08:06:18.498Z,15.23
2022-10-11T08:08:45.217Z,15.29
2022-10-11T08:11:20.768Z,15.37
2022-10-11T08:13:47.360Z,15.41
2022-10-11T08:16:14.321Z,15.49
2022-10-11T08:18:41.001Z,15.55
2022-10-11T08:21:13.699Z,15.61
2022-10-11T08:23:40.440Z,15.63
2022-10-11T08:26:07.788Z,15.75
2022-10-11T08:28:34.965Z,15.94
2022-10-11T08:31:02.274Z,15.99
2022-10-11T08:33:28.889Z,16.02
2022-10-11T08:35:57.281Z,15.87
2022-10-11T08:38:24.169Z,15.74
2022-10-11T08:40:55.105Z,15.59
2022-10-11T08:43:54.297Z,15.34
2022-10-11T08:46:30.917Z,15.14
2022-10-11T08:48:58.633Z,15.07
2022-10-11T08:51:30.923Z,15.08
2022-10-11T08:54:07.133Z,14.89
2022-10-11T08:56:37.802Z,14.73
2022-10-11T08:59:13.634Z,14.68
2022-10-11T09:01:52.742Z,14.66
2022-10-11T09:04:19.651Z,14.85
2022-10-11T09:06:52.207Z,15.08
2022-10-11T09:09:28.000Z,15.31
2022-10-11T09:12:22.796Z,15.20
2022-10-11T09:15:17.909Z,15.19
2022-10-11T09:18:09.850Z,15.18
2022-10-11T09:20:52.447Z,15.31
2022-10-11T09:23:59.461Z,15.36
2022-10-11T09:26:31.551Z,15.48
2022-10-11T09:29:13.423Z,15.49
2022-10-11T09:31:42.076Z,15.46
2022-10-11T09:34:12.664Z,15.43
2022-10-11T09:36:45.254Z,15.35
2022-10-11T09:39:17.826Z,15.24
2022-10-11T09:41:54.321Z,15.10
2022-10-11T09:44:27.286Z,15.08
2022-10-11T09:46:55.788Z,14.97
2022-10-11T09:49:29.875Z,14.96
2022-10-11T09:52:00.384Z,15.04
2022-10-11T09:54:49.080Z,15.16
2022-10-11T09:57:39.975Z,15.23
2022-10-11T10:00:08.716Z,15.02
2022-10-11T10:02:47.637Z,14.84
2022-10-11T10:05:23.554Z,14.46
2022-10-11T10:08:09.112Z,14.23
2022-10-11T10:10:55.797Z,14.10
2022-10-11T10:13:29.878Z,14.03
2022-10-11T10:16:01.346Z,14.14
2022-10-11T10:18:37.735Z,14.34
2022-10-11T10:21:09.326Z,14.57
2022-10-11T10:23:37.471Z,14.72
2022-10-11T10:26:20.849Z,14.86
2022-10-11T10:29:17.199Z,15.01
2022-10-11T10:32:13.521Z,15.05
2022-10-11T10:35:03.408Z,15.17
2022-10-11T10:37:36.356Z,15.22
2022-10-11T10:40:08.510Z,15.21
2022-10-11T10:42:35.415Z,15.13
2022-10-11T10:45:02.640Z,15.01
2022-10-11T10:47:42.725Z,14.95
2022-10-11T10:50:19.291Z,14.90
2022-10-11T10:53:18.131Z,15.01
2022-10-11T10:55:50.588Z,15.01
2022-10-11T10:58:20.178Z,14.83
2022-10-11T11:00:52.231Z,14.73
2022-10-11T11:03:29.146Z,14.55
2022-10-11T11:06:07.092Z,14.45
2022-10-11T11:08:46.741Z,14.21
2022-10-11T11:11:19.391Z,14.02
2022-10-11T11:14:21.722Z,13.89
2022-10-11T11:17:06.010Z,13.72
2022-10-11T11:20:10.573Z,13.75
2022-10-11T11:22:47.820Z,13.66
2022-10-11T11:25:31.442Z,13.60
2022-10-11T11:28:28.240Z,13.68
2022-10-11T11:31:16.554Z,13.86
2022-10-11T11:33:52.192Z,14.04
2022-10-11T11:36:27.724Z,14.05
2022-10-11T11:39:02.369Z,14.04
2022-10-11T11:41:37.329Z,13.97
2022-10-11T11:44:12.238Z,13.87
2022-10-11T11:46:44.154Z,13.74
2022-10-11T11:49:19.298Z,13.70
2022-10-11T11:51:47.890Z,13.57
2022-10-11T11:54:44.705Z,13.64
2022-10-11T11:57:31.525Z,13.74
2022-10-11T12:00:17.452Z,13.66
2022-10-11T12:02:55.341Z,13.65
2022-10-11T12:05:33.728Z,13.55
2022-10-11T12:08:24.264Z,13.42
2022-10-11T12:10:50.786Z,13.27
2022-10-11T12:13:32.419Z,13.21
2022-10-11T12:16:14.453Z,13.18
2022-10-11T12:18:55.184Z,13.13
2022-10-11T12:21:31.135Z,13.09
2022-10-11T12:24:20.093Z,13.12
2022-10-11T12:26:48.732Z,13.19
2022-10-11T12:29:18.420Z,13.27
2022-10-11T12:31:50.858Z,13.37
2022-10-11T12:34:34.399Z,13.37
2022-10-11T12:37:21.334Z,13.35
2022-10-11T12:39:52.990Z,13.33
2022-10-11T12:42:27.290Z,13.29
2022-10-11T12:45:12.813Z,13.37
2022-10-11T12:47:46.977Z,13.48
2022-10-11T12:50:39.778Z,13.48
2022-10-11T12:53:21.514Z,13.49
2022-10-11T12:56:33.278Z,13.61
2022-10-11T12:59:04.657Z,13.78
2022-10-11T13:01:49.134Z,13.94
2022-10-11T13:04:19.160Z,14.13
2022-10-11T13:06:50.536Z,14.29
2022-10-11T13:09:39.379Z,14.39
2022-10-11T13:12:09.000Z,14.28
2022-10-11T13:14:42.510Z,14.20
2022-10-11T13:17:26.600Z,14.04
2022-10-11T13:20:02.469Z,14.02
2022-10-11T13:22:29.056Z,14.09
2022-10-11T13:24:59.647Z,14.23
2022-10-11T13:27:27.581Z,14.48
2022-10-11T13:29:59.456Z,14.72
2022-10-11T13:32:29.884Z,14.95
2022-10-11T13:35:04.777Z,15.18
2022-10-11T13:37:42.417Z,15.38
2022-10-11T13:40:21.124Z,15.44
2022-10-11T13:42:50.292Z,15.53
2022-10-11T13:45:23.216Z,15.60
2022-10-11T13:47:51.495Z,15.59
2022-10-11T13:50:35.288Z,15.66
2022-10-11T13:53:07.880Z,15.80
2022-10-11T13:55:47.605Z,15.94
2022-10-11T13:58:24.664Z,15.99
2022-10-11T14:00:58.430Z,15.93
2022-10-11T14:03:37.550Z,15.82
2022-10-11T14:06:04.557Z,15.75
2022-10-11T14:08:37.973Z,15.66
2022-10-11T14:11:06.979Z,15.58
2022-10-11T14:13:39.435Z,15.54
2022-10-11T14:16:21.344Z,15.50
2022-10-11T14:19:02.307Z,15.49
2022-10-11T14:21:48.713Z,15.47
2022-10-11T14:24:17.909Z,15.43
2022-10-11T14:26:48.312Z,15.39
2022-10-11T14:29:23.723Z,15.31
2022-10-11T14:31:51.144Z,15.29
2022-10-11T14:34:23.538Z,15.26
2022-10-11T14:36:51.582Z,15.25
2022-10-11T14:39:22.489Z,15.18
2022-10-11T14:41:53.088Z,15.11
2022-10-11T14:44:22.679Z,15.04
2022-10-11T14:46:51.877Z,14.91
2022-10-11T14:49:24.637Z,14.76
2022-10-11T14:51:52.577Z,14.63
2022-10-11T14:54:25.017Z,14.51
2022-10-11T14:56:53.557Z,14.40
2022-10-11T14:59:24.496Z,14.27
2022-10-11T15:01:53.557Z,14.17
2022-10-11T15:04:21.959Z,14.04
2022-10-11T15:06:49.187Z,13.93
2022-10-11T15:09:17.236Z,13.80
2022-10-11T15:11:43.906Z,13.68
2022-10-11T15:14:10.544Z,13.58
2022-10-11T15:16:37.272Z,13.46
2022-10-11T15:19:04.065Z,13.37
2022-10-11T15:21:31.226Z,13.33
2022-10-11T15:23:57.923Z,13.29
2022-10-11T15:26:27.342Z,13.25
2022-10-11T15:28:56.345Z,13.17
2022-10-11T15:31:24.119Z,13.05
2022-10-11T15:33:51.582Z,12.92
2022-10-11T15:36:21.722Z,12.78
2022-10-11T15:38:49.276Z,12.66
2022-10-11T15:41:18.916Z,12.51
2022-10-11T15:43:47.442Z,12.36
2022-10-11T15:46:25.120Z,12.20
2022-10-11T15:48:52.364Z,12.03
2022-10-11T15:51:19.451Z,11.86
2022-10-11T15:53:46.491Z,11.70
2022-10-11T15:56:17.094Z,11.53
2022-10-11T15:58:44.125Z,11.38
2022-10-11T16:01:20.070Z,11.23
2022-10-11T16:03:48.785Z,11.07
2022-10-11T16:06:15.991Z,10.92
2022-10-11T16:08:42.744Z,10.77
2022-10-11T16:11:10.429Z,10.62
2022-10-11T16:13:38.077Z,10.47
2022-10-11T16:16:07.833Z,10.36
2022-10-11T16:18:35.861Z,10.23
2022-10-11T16:21:10.497Z,10.14
2022-10-11T16:23:37.895Z,10.05
2022-10-11T16:26:07.685Z,9.98
2022-10-11T16:28:34.907Z,9.91
2022-10-11T16:31:08.037Z,9.84
2022-10-11T16:33:34.679Z,9.80
2022-10-11T16:36:21.219Z,9.72
2022-10-11T16:38:47.920Z,9.64
2022-10-11T16:41:14.509Z,9.55
2022-10-11T16:43:41.109Z,9.48
2022-10-11T16:46:08.103Z,9.42
2022-10-11T16:48:35.066Z,9.38
2022-10-11T16:51:06.705Z,9.33
2022-10-11T16:53:34.902Z,9.28
2022-10-11T16:56:09.252Z,9.23
2022-10-11T16:58:36.742Z,9.17
2022-10-11T17:01:08.815Z,9.11
2022-10-11T17:03:35.542Z,9.04
2022-10-11T17:06:02.565Z,8.97
2022-10-11T17:08:29.443Z,8.89
2022-10-11T17:10:57.680Z,8.83
2022-10-11T17:13:24.836Z,8.78
2022-10-11T17:15:51.509Z,8.75
2022-10-11T17:18:18.171Z,8.69
2022-10-11T17:20:44.845Z,8.63
2022-10-11T17:23:11.923Z,8.58
2022-10-11T17:25:44.257Z,8.53
2022-10-11T17:28:11.180Z,8.48
2022-10-11T17:30:41.010Z,8.43
2022-10-11T17:33:08.035Z,8.39
2022-10-11T17:35:35.000Z,8.33
2022-10-11T17:38:05.965Z,8.24
2022-10-11T17:40:33.972Z,8.15
2022-10-11T17:43:00.664Z,8.11
2022-10-11T17:45:27.283Z,8.07
2022-10-11T17:47:54.011Z,8.02
2022-10-11T17:50:20.719Z,7.97
2022-10-11T17:52:47.508Z,7.89
2022-10-11T17:55:14.205Z,7.82
2022-10-11T17:57:40.847Z,7.74
2022-10-11T18:00:08.208Z,7.67
2022-10-11T18:02:34.882Z,7.59
2022-10-11T18:05:01.516Z,7.50
2022-10-11T18:07:28.222Z,7.44
2022-10-11T18:09:54.898Z,7.41
2022-10-11T18:12:21.549Z,7.40
2022-10-11T18:14:48.169Z,7.38
2022-10-11T18:17:14.861Z,7.35
2022-10-11T18:19:41.560Z,7.32
2022-10-11T18:22:08.491Z,7.30
2022-10-11T18:24:35.143Z,7.27
2022-10-11T18:27:01.810Z,7.25
2022-10-11T18:29:29.874Z,7.25
2022-10-11T18:31:56.587Z,7.23
2022-10-11T18:34:23.288Z,7.21
2022-10-11T18:36:49.947Z,7.19
2022-10-11T18:39:16.603Z,7.16
2022-10-11T18:41:44.741Z,7.12
2022-10-11T18:44:16.461Z,7.11
2022-10-11T18:46:44.321Z,7.09
2022-10-11T18:49:11.729Z,7.06
2022-10-11T18:51:41.308Z,7.03
2022-10-11T18:54:11.417Z,7.01
2022-10-11T18:56:39.751Z,6.97
2022-10-11T18:59:08.612Z,6.94
2022-10-11T19:01:38.807Z,6.93
2022-10-11T19:04:07.502Z,6.91
2022-10-11T19:06:37.912Z,6.86
2022-10-11T19:09:17.916Z,6.80
2022-10-11T19:11:44.627Z,6.74
2022-10-11T19:14:15.343Z,6.69
2022-10-11T19:16:45.682Z,6.64
2022-10-11T19:19:12.962Z,6.62
2022-10-11T19:21:39.889Z,6.60
2022-10-11T19:24:07.150Z,6.60
2022-10-11T19:26:37.500Z,6.59
2022-10-11T19:29:14.913Z,6.58
2022-10-11T19:31:44.825Z,6.53
2022-10-11T19:34:12.213Z,6.49
2022-10-11T19:36:41.984Z,6.47
2022-10-11T19:39:12.340Z,6.44
2022-10-11T19:41:39.031Z,6.39
2022-10-11T19:44:06.215Z,6.35
2022-10-11T19:49:24.107Z,6.24
2022-10-11T19:51:51.551Z,6.20
2022-10-11T19:54:18.225Z,6.17
2022-10-11T19:56:44.896Z,6.15
2022-10-11T19:59:13.019Z,6.12
2022-10-11T20:01:40.904Z,6.11
2022-10-11T20:04:22.630Z,6.06
2022-10-11T20:06:57.497Z,6.00
2022-10-11T20:09:31.419Z,5.95
2022-10-11T20:11:59.019Z,5.92
2022-10-11T20:14:25.920Z,5.88
2022-10-11T20:16:52.853Z,5.85
2022-10-11T20:19:19.582Z,5.84
2022-10-11T20:21:48.645Z,5.83
2022-10-11T20:24:15.220Z,5.82
2022-10-11T20:26:41.846Z,5.82
2022-10-11T20:29:08.542Z,5.82
2022-10-11T20:31:40.922Z,5.79
2022-10-11T20:34:08.069Z,5.77
2022-10-11T20:36:36.419Z,5.76
2022-10-11T20:39:05.111Z,5.75
2022-10-11T20:41:34.381Z,5.74
2022-10-11T20:44:02.261Z,5.71
2022-10-11T20:46:31.671Z,5.65
2022-10-11T20:49:03.902Z,5.60
2022-10-11T20:51:33.005Z,5.55
2022-10-11T20:54:01.051Z,5.50
2022-10-11T20:56:28.493Z,5.47
2022-10-11T20:58:56.388Z,5.43
2022-10-11T21:01:29.421Z,5.43
2022-10-11T21:04:01.394Z,5.40
2022-10-11T21:06:29.763Z,5.40
2022-10-11T21:08:57.013Z,5.40
2022-10-11T21:11:28.208Z,5.41
2022-10-11T21:13:56.932Z,5.39
2022-10-11T21:16:24.711Z,5.37
2022-10-11T21:18:53.015Z,5.36
2022-10-11T21:21:20.313Z,5.34
2022-10-11T21:23:47.623Z,5.32
2022-10-11T21:26:18.395Z,5.27
2022-10-11T21:28:46.895Z,5.24
2022-10-11T21:31:17.013Z,5.21
2022-10-11T21:33:44.790Z,5.18
2022-10-11T21:36:14.456Z,5.16
2022-10-11T21:38:41.281Z,5.14
2022-10-11T21:41:10.866Z,5.11
2022-10-11T21:43:38.484Z,5.06
2022-10-11T21:46:23.800Z,5.00
2022-10-11T21:48:54.002Z,4.92
2022-10-11T21:51:24.799Z,4.89
2022-10-11T21:53:51.588Z,4.87
2022-10-11T21:56:18.793Z,4.85
2022-10-11T21:58:49.595Z,4.84
2022-10-11T22:01:17.870Z,4.83
2022-10-11T22:03:45.358Z,4.82
2022-10-11T22:06:12.160Z,4.82
2022-10-11T22:08:39.543Z,4.82
2022-10-11T22:11:06.692Z,4.80
2022-10-11T22:13:34.556Z,4.76
2022-10-11T22:16:03.702Z,4.73
2022-10-11T22:18:33.487Z,4.72
2022-10-11T22:21:18.398Z,4.70
2022-10-11T22:23:47.339Z,4.71
2022-10-11T22:26:17.119Z,4.68
2022-10-11T22:28:46.625Z,4.66
2022-10-11T22:31:14.219Z,4.63
2022-10-11T22:33:42.047Z,4.60
2022-10-11T22:36:10.427Z,4.56
2022-10-11T22:38:38.335Z,4.52
2022-10-11T22:41:05.363Z,4.50
2022-10-11T22:43:32.058Z,4.48
2022-10-11T22:45:58.901Z,4.48
2022-10-11T22:48:26.158Z,4.46
2022-10-11T22:50:53.229Z,4.44
2022-10-11T22:53:20.117Z,4.43
2022-10-11T22:55:47.415Z,4.41
2022-10-11T22:58:14.284Z,4.41
2022-10-11T23:00:40.872Z,4.42
2022-10-11T23:03:07.538Z,4.42
2022-10-11T23:05:35.222Z,4.43
2022-10-11T23:08:01.819Z,4.44
2022-10-11T23:10:28.407Z,4.44
2022-10-11T23:12:54.985Z,4.45
2022-10-11T23:15:21.564Z,4.46
2022-10-11T23:17:48.270Z,4.45
2022-10-11T23:20:15.024Z,4.44
2022-10-11T23:22:41.586Z,4.41
2022-10-11T23:25:08.733Z,4.36
2022-10-11T23:27:35.548Z,4.34
2022-10-11T23:30:02.288Z,4.28
2022-10-11T23:32:28.921Z,4.28
2022-10-11T23:34:55.677Z,4.26
2022-10-11T23:37:22.290Z,4.26
2022-10-11T23:39:48.855Z,4.24
2022-10-11T23:42:15.459Z,4.24
2022-10-11T23:44:42.048Z,4.24
2022-10-11T23:47:08.702Z,4.24
2022-10-11T23:49:35.272Z,4.24
2022-10-11T23:52:01.875Z,4.24
2022-10-11T23:54:28.493Z,4.23
2022-10-11T23:56:55.080Z,4.19
2022-10-11T23:59:21.630Z,4.13
